createdAt,value
2022-11-16T00:04:05.695Z,16.42
2022-11-16T00:09:11.722Z,16.00
2022-11-16T00:14:16.991Z,15.68
2022-11-16T00:19:20.608Z,15.65
2022-11-16T00:24:24.597Z,15.45
2022-11-16T00:29:29.985Z,15.26
2022-11-16T00:34:33.753Z,15.12
2022-11-16T00:39:37.371Z,15.08
2022-11-16T00:44:42.591Z,14.92
2022-11-16T00:49:46.173Z,14.69
2022-11-16T00:54:49.782Z,14.29
2022-11-16T00:59:55.026Z,14.07
2022-11-16T01:04:58.630Z,14.10
2022-11-16T01:10:02.247Z,13.69
2022-11-16T01:15:09.277Z,13.46
2022-11-16T01:20:15.123Z,13.58
2022-11-16T01:25:19.291Z,13.58
2022-11-16T01:30:24.493Z,13.57
2022-11-16T01:35:28.041Z,13.38
2022-11-16T01:40:31.573Z,13.23
2022-11-16T01:45:39.685Z,13.11
2022-11-16T01:50:44.054Z,13.15
2022-11-16T01:55:49.913Z,12.99
2022-11-16T02:00:55.312Z,13.03
2022-11-16T02:06:16.189Z,13.05
2022-11-16T02:11:34.368Z,12.79
2022-11-16T02:16:48.108Z,12.57
2022-11-16T02:22:03.406Z,12.43
2022-11-16T02:27:33.380Z,12.58
2022-11-16T02:32:43.004Z,12.59
2022-11-16T02:37:51.991Z,12.49
2022-11-16T02:43:01.593Z,12.45
2022-11-16T02:48:11.393Z,12.49
2022-11-16T02:53:15.134Z,12.37
2022-11-16T02:58:22.446Z,12.38
2022-11-16T03:03:35.329Z,12.26
2022-11-16T03:08:43.704Z,12.28
2022-11-16T03:13:49.372Z,12.11
2022-11-16T03:18:58.266Z,12.01
2022-11-16T03:24:02.232Z,12.01
2022-11-16T03:29:15.108Z,11.99
2022-11-16T03:34:23.788Z,12.03
2022-11-16T03:39:34.329Z,11.99
2022-11-16T03:44:39.309Z,11.99
2022-11-16T03:49:47.895Z,11.92
2022-11-16T03:54:51.542Z,11.87
2022-11-16T03:59:55.118Z,11.80
2022-11-16T04:05:00.404Z,11.74
2022-11-16T04:10:04.151Z,11.75
2022-11-16T04:15:10.722Z,11.41
2022-11-16T04:20:17.449Z,11.29
2022-11-16T04:25:28.504Z,11.30
2022-11-16T04:30:40.344Z,11.20
2022-11-16T04:35:46.915Z,10.90
2022-11-16T04:40:52.375Z,10.85
2022-11-16T04:45:57.682Z,10.73
2022-11-16T04:51:09.587Z,10.63
2022-11-16T04:56:16.276Z,10.63
2022-11-16T05:01:25.963Z,10.53
2022-11-16T05:06:37.592Z,10.42
2022-11-16T05:11:43.496Z,10.31
2022-11-16T05:16:48.370Z,10.23
2022-11-16T05:21:56.953Z,10.16
2022-11-16T05:27:05.053Z,10.03
2022-11-16T05:32:11.259Z,9.96
2022-11-16T05:37:16.803Z,9.86
2022-11-16T05:42:21.621Z,9.77
2022-11-16T05:47:26.208Z,9.67
2022-11-16T05:52:32.374Z,9.61
2022-11-16T05:57:37.133Z,9.60
2022-11-16T06:02:41.972Z,9.57
2022-11-16T06:07:50.687Z,9.34
2022-11-16T06:12:56.092Z,9.39
2022-11-16T06:18:00.624Z,9.48
2022-11-16T06:23:08.327Z,9.42
2022-11-16T06:28:13.390Z,9.46
2022-11-16T06:33:18.194Z,9.29
2022-11-16T06:38:24.544Z,9.13
2022-11-16T06:43:28.210Z,9.08
2022-11-16T06:48:34.268Z,8.96
2022-11-16T06:53:39.914Z,8.86
2022-11-16T06:58:44.177Z,8.69
2022-11-16T07:03:48.365Z,8.67
2022-11-16T07:08:54.672Z,8.58
2022-11-16T07:13:57.522Z,8.73
2022-11-16T07:19:01.752Z,8.74
2022-11-16T07:24:08.538Z,8.68
2022-11-16T07:29:12.443Z,8.65
2022-11-16T07:34:16.194Z,8.66
2022-11-16T07:39:21.897Z,8.60
2022-11-16T07:44:25.846Z,8.54
2022-11-16T07:49:29.428Z,8.50
2022-11-16T07:54:34.620Z,8.47
2022-11-16T07:59:38.149Z,8.43
2022-11-16T08:04:41.746Z,8.37
2022-11-16T08:09:46.981Z,8.38
2022-11-16T08:14:50.559Z,8.25
2022-11-16T08:19:54.103Z,8.18
2022-11-16T08:24:59.270Z,8.14
2022-11-16T08:30:02.867Z,8.15
2022-11-16T08:35:07.145Z,8.12
2022-11-16T08:40:13.157Z,8.03
2022-11-16T08:45:16.852Z,7.92
2022-11-16T08:50:20.465Z,7.73
2022-11-16T08:55:26.956Z,7.68
2022-11-16T09:00:29.778Z,7.69
2022-11-16T09:05:33.329Z,7.64
2022-11-16T09:10:38.694Z,7.55
2022-11-16T09:15:42.215Z,7.46
2022-11-16T09:20:45.816Z,7.37
2022-11-16T09:25:51.051Z,7.49
2022-11-16T09:30:54.611Z,7.36
2022-11-16T09:36:02.204Z,7.18
2022-11-16T09:41:25.730Z,6.99
2022-11-16T09:46:35.442Z,7.09
2022-11-16T09:51:40.929Z,6.98
2022-11-16T09:56:49.043Z,6.81
2022-11-16T10:01:58.555Z,6.74
2022-11-16T10:07:07.855Z,6.75
2022-11-16T10:12:21.357Z,6.70
2022-11-16T10:17:38.920Z,6.69
2022-11-16T10:22:52.640Z,6.53
2022-11-16T10:28:24.066Z,6.61
2022-11-16T10:33:29.449Z,6.48
2022-11-16T10:38:34.092Z,6.53
2022-11-16T10:43:40.553Z,6.44
2022-11-16T10:48:49.952Z,6.53
2022-11-16T10:53:53.481Z,6.52
2022-11-16T10:59:00.589Z,6.44
2022-11-16T11:04:22.043Z,6.53
2022-11-16T11:09:28.503Z,6.44
2022-11-16T11:14:33.878Z,6.31
2022-11-16T11:19:37.412Z,6.41
2022-11-16T11:24:48.227Z,6.44
2022-11-16T11:29:56.089Z,6.31
2022-11-16T11:35:00.064Z,6.39
2022-11-16T11:40:25.100Z,6.36
2022-11-16T11:45:47.795Z,6.25
2022-11-16T11:50:55.188Z,6.24
2022-11-16T11:56:02.514Z,6.19
2022-11-16T12:01:31.548Z,6.17
2022-11-16T12:06:46.649Z,6.03
2022-11-16T12:12:01.887Z,6.02
2022-11-16T12:17:17.572Z,6.06
2022-11-16T12:22:39.118Z,5.96
2022-11-16T12:27:50.168Z,6.06
2022-11-16T12:33:12.674Z,6.02
2022-11-16T12:38:30.683Z,5.86
2022-11-16T12:43:42.976Z,5.84
2022-11-16T12:49:23.058Z,5.78
2022-11-16T12:55:23.671Z,5.95
2022-11-16T13:00:13.341Z,5.72
2022-11-16T13:05:21.576Z,5.70
2022-11-16T13:10:30.047Z,5.77
2022-11-16T13:15:38.327Z,5.74
2022-11-16T13:20:50.677Z,5.56
2022-11-16T13:26:01.899Z,5.39
2022-11-16T13:31:12.371Z,5.30
2022-11-16T13:36:45.608Z,5.48
2022-11-16T13:41:51.165Z,5.49
2022-11-16T13:46:58.049Z,5.42
2022-11-16T13:52:22.727Z,5.27
2022-11-16T13:57:30.429Z,5.17
2022-11-16T14:02:36.496Z,5.19
2022-11-16T14:07:42.929Z,5.21
2022-11-16T14:12:55.108Z,5.18
2022-11-16T14:18:01.997Z,5.26
2022-11-16T14:23:20.401Z,5.18
2022-11-16T14:28:47.982Z,5.05
2022-11-16T14:33:53.454Z,4.98
2022-11-16T14:39:24.154Z,5.02
2022-11-16T14:44:32.155Z,5.00
2022-11-16T14:49:38.339Z,4.95
2022-11-16T14:54:51.554Z,4.95
2022-11-16T15:00:09.285Z,4.88
2022-11-16T15:05:17.157Z,5.17
2022-11-16T15:10:24.283Z,5.40
2022-11-16T15:15:29.310Z,5.78
2022-11-16T15:20:35.012Z,6.04
2022-11-16T15:25:43.457Z,6.35
2022-11-16T15:30:50.658Z,6.66
2022-11-16T15:35:55.444Z,6.98
2022-11-16T15:41:02.389Z,7.28
2022-11-16T15:46:07.970Z,7.51
2022-11-16T15:51:16.983Z,7.69
2022-11-16T15:56:31.340Z,8.02
2022-11-16T16:01:42.936Z,8.10
2022-11-16T16:06:51.599Z,8.24
2022-11-16T16:12:11.920Z,8.49
2022-11-16T16:17:25.103Z,8.60
2022-11-16T16:22:31.401Z,8.89
2022-11-16T16:27:40.727Z,9.31
2022-11-16T16:32:48.127Z,9.65
2022-11-16T16:37:56.935Z,10.15
2022-11-16T16:43:03.018Z,10.63
2022-11-16T16:48:08.847Z,10.83
2022-11-16T16:53:13.701Z,11.28
2022-11-16T16:58:18.902Z,11.51
2022-11-16T17:03:24.082Z,11.95
2022-11-16T17:08:28.321Z,12.29
2022-11-16T17:13:36.243Z,12.57
2022-11-16T17:18:41.365Z,12.78
2022-11-16T17:23:45.472Z,13.35
2022-11-16T17:28:57.713Z,13.63
2022-11-16T17:34:01.832Z,13.93
2022-11-16T17:39:06.935Z,14.20
2022-11-16T17:44:18.572Z,14.48
2022-11-16T17:49:24.879Z,14.65
2022-11-16T17:54:29.561Z,14.84
2022-11-16T17:59:36.042Z,15.14
2022-11-16T18:04:39.665Z,15.50
2022-11-16T18:09:43.229Z,15.74
2022-11-16T18:15:13.463Z,16.03
2022-11-16T18:20:14.197Z,16.24
2022-11-16T18:25:17.845Z,16.42
2022-11-16T18:30:24.487Z,16.71
2022-11-16T18:35:28.022Z,16.96
2022-11-16T18:40:31.693Z,17.16
2022-11-16T18:45:36.902Z,17.31
2022-11-16T18:50:40.427Z,17.50
2022-11-16T18:55:44.016Z,17.56
2022-11-16T19:00:49.750Z,17.72
2022-11-16T19:05:57.175Z,17.99
2022-11-16T19:11:05.303Z,18.13
2022-11-16T19:16:12.173Z,18.30
2022-11-16T19:21:17.082Z,18.38
2022-11-16T19:26:21.913Z,18.50
2022-11-16T19:31:28.580Z,18.72
2022-11-16T19:36:33.310Z,18.82
2022-11-16T19:41:36.883Z,18.86
2022-11-16T19:46:42.973Z,18.79
2022-11-16T19:51:46.566Z,18.87
2022-11-16T19:56:54.843Z,18.87
2022-11-16T20:02:00.477Z,19.05
2022-11-16T20:07:04.086Z,19.21
2022-11-16T20:12:07.914Z,19.32
2022-11-16T20:17:13.138Z,19.32
2022-11-16T20:22:16.660Z,19.42
2022-11-16T20:27:20.193Z,19.41
2022-11-16T20:32:25.508Z,19.44
2022-11-16T20:37:29.034Z,19.50
2022-11-16T20:42:32.601Z,19.54
2022-11-16T20:47:37.765Z,19.56
2022-11-16T20:52:43.692Z,19.61
2022-11-16T20:57:49.718Z,19.64
2022-11-16T21:02:54.942Z,19.69
2022-11-16T21:07:58.551Z,19.69
2022-11-16T21:13:02.104Z,19.75
2022-11-16T21:18:07.414Z,19.73
2022-11-16T21:23:10.946Z,19.79
2022-11-16T21:28:14.502Z,19.69
2022-11-16T21:33:19.675Z,19.65
2022-11-16T21:38:25.091Z,19.72
2022-11-16T21:43:28.890Z,19.62
2022-11-16T21:48:35.018Z,19.63
2022-11-16T21:53:38.928Z,19.61
2022-11-16T21:58:42.883Z,19.68
2022-11-16T22:03:48.106Z,19.53
2022-11-16T22:08:52.282Z,19.57
2022-11-16T22:13:55.846Z,19.58
2022-11-16T22:19:01.168Z,19.57
2022-11-16T22:24:04.910Z,19.49
2022-11-16T22:29:08.499Z,19.48
2022-11-16T22:34:13.849Z,19.47
2022-11-16T22:39:17.465Z,19.51
2022-11-16T22:44:21.003Z,19.49
2022-11-16T22:49:26.201Z,19.27
2022-11-16T22:54:29.747Z,19.15
2022-11-16T22:59:33.339Z,19.04
2022-11-16T23:04:38.540Z,18.94
2022-11-16T23:09:42.162Z,19.19
2022-11-16T23:14:45.826Z,18.97
2022-11-16T23:19:51.071Z,18.69
2022-11-16T23:24:54.691Z,18.41
2022-11-16T23:29:58.796Z,18.28
2022-11-16T23:35:04.688Z,18.11
2022-11-16T23:40:09.277Z,17.98
2022-11-16T23:45:12.859Z,17.70
2022-11-16T23:50:18.437Z,17.47
2022-11-16T23:55:21.275Z,17.01
